Time;durP1;ratioP1;P1;durP2;ratioP2;P2;SDS_P1;SDS_P2;PMS_P1;PMS_P2;Temp;Humidity;BMP_temperature;BMP_pressure;BME280_temperature;BME280_humidity;BME280_pressure;Samples;Min_cycle;Max_cycle;Signal;HPM_P1;HPM_P2
2024/03/13 00:00:16;;;;;;;38.17;20.92;;;;;;;5.49;89.31;100137.16;1819678;79;25325;-81
2024/03/13 00:02:45;;;;;;;36.13;21.07;;;;;;;5.50;89.32;100135.27;1819236;79;35123;-80
2024/03/13 00:05:12;;;;;;;31.17;19.95;;;;;;;5.49;89.33;100139.84;1819160;77;25428;-80
2024/03/13 00:07:40;;;;;;;36.30;21.77;;;;;;;5.49;89.27;100139.84;1819518;78;27274;-80
2024/03/13 00:10:09;;;;;;;35.53;20.93;;;;;;;5.49;89.41;100137.16;1819628;79;25749;-80
2024/03/13 00:12:35;;;;;;;36.33;20.43;;;;;;;5.65;89.33;100168.70;1818992;79;25169;-81
2024/03/13 00:15:05;;;;;;;33.60;20.20;;;;;;;5.48;89.40;100139.56;1818890;78;26130;-80
2024/03/13 00:17:32;;;;;;;;;;;;;;;5.46;89.19;100136.91;1821588;78;25610;-80
2024/03/13 00:19:58;;;;;;;30.75;19.35;;;;;;;5.42;89.10;100142.04;1819168;79;27340;-80
2024/03/13 00:22:27;;;;;;;34.50;20.70;;;;;;;5.40;89.24;100138.84;1819413;78;25614;-80
2024/03/13 00:24:59;;;;;;;33.00;20.35;;;;;;;5.40;89.27;100140.97;1819406;78;25516;-80
2024/03/13 00:27:26;;;;;;;34.00;18.95;;;;;;;5.37;89.13;100138.05;1818961;79;26324;-81
2024/03/13 00:29:52;;;;;;;32.13;20.50;;;;;;;5.37;89.25;100135.37;1787039;79;25400;-81
2024/03/13 00:32:25;;;;;;;32.23;20.02;;;;;;;5.35;89.26;100134.84;1819007;78;28032;-81
2024/03/13 00:34:51;;;;;;;37.78;19.65;;;;;;;5.34;89.23;100138.05;1818961;79;25790;-82
2024/03/13 00:37:18;;;;;;;28.90;19.30;;;;;;;5.32;89.36;100133.51;1819023;78;25423;-81
2024/03/13 00:39:44;;;;;;;32.13;19.48;;;;;;;5.31;89.26;100141.31;1818821;78;25617;-82
2024/03/13 00:42:12;;;;;;;29.02;19.15;;;;;;;5.32;89.39;100142.10;1818538;79;25220;-82
2024/03/13 00:44:43;;;;;;;31.00;20.25;;;;;;;5.32;89.50;100138.08;1818705;78;28098;-81
2024/03/13 00:47:14;;;;;;;34.20;19.95;;;;;;;5.32;89.57;100138.87;1818815;79;25454;-82
2024/03/13 00:49:43;;;;;;;33.05;19.70;;;;;;;5.32;89.43;100140.21;1818919;78;25399;-81
2024/03/13 00:52:09;;;;;;;27.22;17.40;;;;;;;5.30;89.27;100138.91;1818813;78;25648;-81
2024/03/13 00:54:38;;;;;;;27.45;17.10;;;;;;;5.28;89.29;100135.16;1819214;79;25377;-81
2024/03/13 00:57:05;;;;;;;28.60;18.05;;;;;;;5.24;89.14;100140.27;1785877;79;33216;-79
2024/03/13 00:59:31;;;;;;;24.05;16.35;;;;;;;5.23;89.14;100135.98;1818513;79;25153;-79
2024/03/13 01:01:57;;;;;;;25.02;16.75;;;;;;;5.20;89.13;100129.02;1818443;79;25486;-79
2024/03/13 01:04:25;;;;;;;28.40;16.97;;;;;;;5.19;89.21;100132.77;1818546;77;26182;-79
2024/03/13 01:06:52;;;;;;;27.87;17.73;;;;;;;5.18;89.24;100131.19;1819486;79;25598;-79
2024/03/13 01:09:23;;;;;;;27.65;17.57;;;;;;;5.16;89.31;100127.44;1818802;79;27306;-79
2024/03/13 01:11:52;;;;;;;28.62;17.62;;;;;;;5.17;89.47;100134.94;1774096;80;26604;-80
2024/03/13 01:14:19;;;;;;;27.73;18.15;;;;;;;5.18;89.55;100134.66;1818528;78;25564;-80
2024/03/13 01:16:55;;;;;;;28.35;17.37;;;;;;;5.19;89.64;100139.48;1773894;80;25657;-79
2024/03/13 01:19:23;;;;;;;31.25;19.23;;;;;;;5.18;89.59;100138.69;1817980;79;25177;-79
2024/03/13 01:21:54;;;;;;;29.80;17.98;;;;;;;5.18;89.61;100131.19;1818199;78;27289;-79
2024/03/13 01:24:21;;;;;;;33.20;19.05;;;;;;;5.18;89.59;100133.33;1818218;78;25447;-79
2024/03/13 01:26:49;;;;;;;31.33;19.40;;;;;;;5.18;89.59;100128.50;1818504;79;25380;-79
2024/03/13 01:29:28;;;;;;;32.75;19.37;;;;;;;5.16;89.58;100132.80;1774445;80;25622;-79
2024/03/13 01:32:13;;;;;;;30.30;19.90;;;;;;;5.13;89.51;100132.01;1814467;78;25455;-79
2024/03/13 01:34:41;;;;;;;33.67;19.65;;;;;;;5.12;89.58;100129.60;1816953;79;28144;-80
2024/03/13 01:39:52;;;;;;;32.05;18.95;;;;;;;5.10;89.73;100129.88;1818673;79;25613;-79
2024/03/13 01:56:22;;;;;;;30.37;18.65;;;;;;;5.09;90.00;100125.61;1698974;84;25659;-79
2024/03/13 01:59:02;;;;;;;30.37;18.55;;;;;;;5.09;89.95;100128.81;1698986;84;25562;-79
2024/03/13 02:04:05;;;;;;;32.00;19.20;;;;;;;5.04;89.85;100127.77;1697830;83;25659;-76
2024/03/13 02:06:32;;;;;;;32.33;18.27;;;;;;;5.02;90.05;100121.89;1697629;84;25591;-77
2024/03/13 02:08:59;;;;;;;29.10;16.50;;;;;;;5.03;90.11;100127.49;1697602;84;25808;-77
2024/03/13 02:11:25;;;;;;;27.22;17.65;;;;;;;5.00;89.80;100125.36;1697636;84;25656;-77
2024/03/13 02:13:52;;;;;;;26.45;16.12;;;;;;;4.99;89.85;100118.95;1697638;84;27360;-77
2024/03/13 02:16:18;;;;;;;32.65;17.27;;;;;;;4.97;89.92;100117.89;1697570;84;25875;-77
2024/03/13 02:18:47;;;;;;;29.25;16.42;;;;;;;4.99;90.02;100121.64;1702681;79;25476;-77
2024/03/13 02:21:12;;;;;;;28.85;17.87;;;;;;;4.97;89.98;100124.59;1762273;81;25601;-77
2024/03/13 02:23:39;;;;;;;30.95;17.35;;;;;;;4.96;90.04;100119.50;1740823;82;25386;-77
2024/03/13 02:26:06;;;;;;;29.70;17.48;;;;;;;4.95;90.01;100121.91;1740955;82;28002;-79
2024/03/13 02:28:36;;;;;;;35.48;17.37;;;;;;;4.94;89.95;100124.31;1740840;82;25445;-76
2024/03/13 02:31:08;;;;;;;29.72;16.97;;;;;;;4.93;90.11;100124.06;1740886;82;25601;-77
2024/03/13 02:33:36;;;;;;;29.40;16.62;;;;;;;4.93;90.02;100125.41;1740772;82;25628;-77
2024/03/13 02:36:04;;;;;;;30.70;18.45;;;;;;;4.91;90.06;100125.68;1740850;82;25422;-77
2024/03/13 02:38:30;;;;;;;29.63;17.23;;;;;;;4.89;90.19;100121.66;1740905;82;27316;-78
2024/03/13 02:40:57;;;;;;;28.07;16.52;;;;;;;4.90;90.37;100124.61;1740846;82;25608;-78
2024/03/13 02:43:24;;;;;;;30.57;17.23;;;;;;;4.90;90.58;100135.33;1740965;82;25535;-78
2024/03/13 02:45:52;;;;;;;34.92;17.80;;;;;;;4.88;90.56;100127.56;1740913;82;25693;-78
2024/03/13 02:48:18;;;;;;;32.05;17.52;;;;;;;4.88;90.54;100123.55;1740956;82;25358;-79
2024/03/13 02:50:45;;;;;;;29.90;17.15;;;;;;;4.89;90.66;100134.54;1741048;82;27964;-79
2024/03/13 02:53:12;;;;;;;29.75;17.37;;;;;;;4.89;90.79;100129.18;1740929;82;25796;-79
2024/03/13 02:55:39;;;;;;;29.92;17.82;;;;;;;4.89;90.76;100134.54;1741043;82;25422;-79
2024/03/13 02:58:06;;;;;;;28.52;16.85;;;;;;;4.90;90.79;100134.78;1740994;82;25669;-79
2024/03/13 03:00:32;;;;;;;31.00;16.45;;;;;;;4.91;90.75;100139.63;1741107;82;25535;-79
2024/03/13 03:02:58;;;;;;;30.70;16.23;;;;;;;4.91;90.75;100135.06;1741072;82;27303;-79
2024/03/13 03:05:25;;;;;;;33.35;17.00;;;;;;;4.90;90.73;100139.36;1739914;82;25487;-78
2024/03/13 03:07:52;;;;;;;27.05;15.70;;;;;;;4.88;90.70;100144.19;1738477;81;25485;-79
2024/03/13 03:10:19;;;;;;;25.77;16.90;;;;;;;4.85;90.82;100137.48;1760412;81;26315;-79
2024/03/13 03:12:45;;;;;;;27.93;16.10;;;;;;;4.85;90.97;100142.84;1741654;82;25623;-79
2024/03/13 03:15:12;;;;;;;33.40;17.35;;;;;;;4.87;91.08;100143.40;1741680;81;27319;-79
2024/03/13 03:17:38;;;;;;;33.75;17.48;;;;;;;4.85;91.01;100137.48;1741610;81;25659;-80
2024/03/13 03:20:07;;;;;;;29.72;17.20;;;;;;;4.85;91.19;100146.86;1741709;82;25558;-80
2024/03/13 03:22:34;;;;;;;28.52;16.45;;;;;;;4.83;91.14;100145.00;1741874;82;25675;-80
2024/03/13 03:25:00;;;;;;;33.53;16.67;;;;;;;4.81;91.24;100145.28;1742085;82;25370;-80
2024/03/13 03:27:26;;;;;;;28.12;17.98;;;;;;;4.77;91.17;100150.93;1760550;81;27295;-79
2024/03/13 03:29:53;;;;;;;29.92;18.15;;;;;;;4.73;91.21;100145.84;1741753;82;25447;-80
2024/03/13 03:32:20;;;;;;;34.23;17.42;;;;;;;4.73;91.45;100148.52;1742702;82;25408;-81
2024/03/13 03:34:46;;;;;;;33.42;16.90;;;;;;;4.72;91.71;100152.28;1742187;81;25619;-81
2024/03/13 03:37:17;;;;;;;32.15;16.75;;;;;;;4.73;91.79;100153.08;1761470;81;25543;-81
2024/03/13 03:39:44;;;;;;;33.18;17.20;;;;;;;4.75;91.92;100152.27;1743142;82;27511;-81
2024/03/13 03:42:10;;;;;;;32.45;17.23;;;;;;;4.74;91.94;100152.81;1760788;80;25383;-81
2024/03/13 03:44:36;;;;;;;32.78;16.57;;;;;;;4.73;91.98;100155.22;1761216;81;25410;-81
2024/03/13 03:47:03;;;;;;;31.52;17.05;;;;;;;4.72;91.86;100160.33;1741937;82;25569;-80
2024/03/13 03:49:31;;;;;;;29.63;17.12;;;;;;;4.71;92.02;100157.38;1742292;82;25241;-80
2024/03/13 03:51:57;;;;;;;32.73;17.65;;;;;;;4.70;92.04;100152.28;1743226;81;28008;-80
2024/03/13 03:54:23;;;;;;;28.75;17.12;;;;;;;4.69;92.04;100158.19;1743953;82;25317;-80
2024/03/13 03:56:50;;;;;;;33.28;18.02;;;;;;;4.69;92.04;100158.19;1742960;82;25199;-79
2024/03/13 03:59:17;;;;;;;32.93;17.45;;;;;;;4.68;92.11;100159.25;1760951;81;25616;-80
2024/03/13 04:01:44;;;;;;;33.55;17.77;;;;;;;4.68;92.20;100164.61;1741865;82;25368;-80
2024/03/13 04:04:13;;;;;;;31.00;17.30;;;;;;;4.67;92.28;100161.14;1741815;82;27305;-80
2024/03/13 04:06:44;;;;;;;33.95;17.67;;;;;;;4.69;92.32;100162.20;1757080;79;32915;-80
2024/03/13 04:09:16;;;;;;;33.53;17.07;;;;;;;4.68;92.37;100164.09;1778949;80;25453;-80
2024/03/13 04:11:46;;;;;;;31.82;17.95;;;;;;;4.70;92.37;100165.67;1817702;79;26186;-80
2024/03/13 04:14:13;;;;;;;33.08;17.07;;;;;;;4.71;92.56;100163.27;1748523;80;25477;-80
2024/03/13 04:16:43;;;;;;;33.25;16.97;;;;;;;4.73;92.74;100171.30;1778813;80;27376;-80
2024/03/13 04:19:10;;;;;;;27.25;17.23;;;;;;;4.74;92.81;100171.56;1816710;79;25542;-80
2024/03/13 04:21:37;;;;;;;28.65;17.77;;;;;;;4.75;92.84;100173.19;1778316;80;25443;-80
2024/03/13 04:24:07;;;;;;;26.57;17.35;;;;;;;4.76;92.73;100173.44;1778680;80;25625;-80
2024/03/13 04:26:42;;;;;;;29.67;17.30;;;;;;;4.78;92.96;100177.97;1817467;79;25197;-80
2024/03/13 04:29:10;;;;;;;28.27;17.25;;;;;;;4.78;92.93;100173.95;1817380;79;27317;-79
2024/03/13 04:31:40;;;;;;;32.58;17.77;;;;;;;4.80;93.00;100177.19;1778252;80;25508;-80
2024/03/13 04:34:09;;;;;;;34.50;19.45;;;;;;;4.81;92.97;100173.96;1817477;79;25427;-79
2024/03/13 04:36:38;;;;;;;31.62;17.65;;;;;;;4.81;92.88;100177.98;1817268;79;25697;-79
2024/03/13 04:39:09;;;;;;;32.55;17.20;;;;;;;4.81;92.83;100178.77;1778622;80;33025;-79
2024/03/13 04:41:41;;;;;;;34.73;18.62;;;;;;;4.80;92.85;100183.89;1817512;79;28062;-79
2024/03/13 04:44:11;;;;;;;32.20;17.98;;;;;;;4.80;92.92;100186.56;1817366;79;25597;-80
2024/03/13 04:46:43;;;;;;;29.35;17.80;;;;;;;4.80;92.97;100186.56;1817799;79;25548;-80
2024/03/13 04:49:10;;;;;;;35.23;17.90;;;;;;;4.79;92.88;100187.63;1778852;80;25593;-80
2024/03/13 04:51:38;;;;;;;36.13;19.17;;;;;;;4.79;92.93;100186.29;1817706;79;25576;-80
2024/03/13 04:54:06;;;;;;;34.05;19.07;;;;;;;4.80;93.01;100187.91;1817623;78;27292;-81
2024/03/13 04:56:34;;;;;;;30.12;17.65;;;;;;;4.78;92.95;100190.58;1817930;78;25595;-81
2024/03/13 04:59:01;;;;;;;41.68;19.27;;;;;;;4.77;93.01;100187.11;1817825;78;25308;-81
2024/03/13 05:01:27;;;;;;;40.17;19.45;;;;;;;4.77;93.01;100189.78;1818638;79;25593;-80
2024/03/13 05:03:53;;;;;;;43.35;19.52;;;;;;;4.77;93.06;100188.45;1818991;79;25365;-80
2024/03/13 05:06:20;;;;;;;38.30;20.15;;;;;;;4.77;93.13;100195.14;1812797;77;28181;-80
2024/03/13 05:08:48;;;;;;;32.83;19.17;;;;;;;4.76;93.17;100198.89;1763639;81;25399;-79
2024/03/13 05:11:17;;;;;;;36.60;19.95;;;;;;;4.76;93.12;100196.20;1807650;79;25376;-79
2024/03/13 05:13:46;;;;;;;39.35;19.23;;;;;;;4.77;93.19;100198.38;1763282;81;25731;-78
2024/03/13 05:16:13;;;;;;;34.88;19.73;;;;;;;4.76;93.42;100198.09;1762338;81;32337;-77
2024/03/13 05:18:40;;;;;;;41.55;20.57;;;;;;;4.77;93.40;100195.69;1806567;79;27520;-77
2024/03/13 05:21:06;;;;;;;50.45;22.75;;;;;;;4.78;93.52;100203.43;1806503;79;25396;-77
2024/03/13 05:23:33;;;;;;;41.18;19.85;;;;;;;4.79;93.60;100198.89;1806589;78;25547;-77
2024/03/13 05:26:00;;;;;;;37.40;19.85;;;;;;;4.79;93.65;100205.59;1806531;79;25617;-73
2024/03/13 05:28:28;;;;;;;40.85;20.70;;;;;;;4.77;93.69;100203.73;1806590;79;25795;-72
2024/03/13 05:30:54;;;;;;;45.05;22.58;;;;;;;4.77;93.65;100207.20;1762862;81;27378;-73
2024/03/13 05:33:20;;;;;;;64.60;36.70;;;;;;;4.78;93.86;100214.16;1806516;79;25630;-73
2024/03/13 05:35:46;;;;;;;68.78;38.35;;;;;;;4.80;94.11;100220.06;1806719;78;25601;-76
2024/03/13 05:38:12;;;;;;;45.88;23.92;;;;;;;4.83;94.28;100213.34;1806616;79;25710;-66
2024/03/13 05:40:39;;;;;;;37.93;20.68;;;;;;;4.84;94.35;100217.09;1806683;78;25378;-67
2024/03/13 05:43:05;;;;;;;45.75;21.52;;;;;;;4.86;94.41;100221.64;1806563;79;27913;-66
2024/03/13 05:45:31;;;;;;;44.25;20.97;;;;;;;4.86;94.25;100222.98;1806452;79;25389;-66
2024/03/13 05:47:57;;;;;;;44.73;22.13;;;;;;;4.84;94.07;100227.81;1806563;79;25380;-66
2024/03/13 05:50:24;;;;;;;41.70;20.60;;;;;;;4.86;94.16;100229.68;1777696;79;25698;-66
2024/03/13 05:52:51;;;;;;;44.05;22.67;;;;;;;4.86;94.30;100230.23;1806494;79;25893;-66
2024/03/13 05:55:18;;;;;;;43.98;22.90;;;;;;;4.86;94.36;100227.55;1806548;78;28221;-67
2024/03/13 05:57:44;;;;;;;42.27;22.52;;;;;;;4.88;94.37;100233.98;1806450;79;25595;-66
2024/03/13 06:00:13;;;;;;;49.18;22.10;;;;;;;4.88;94.44;100231.30;1806554;79;25621;-65
2024/03/13 06:02:40;;;;;;;51.45;23.40;;;;;;;4.88;94.60;100234.77;1806646;79;25622;-74
2024/03/13 06:05:11;;;;;;;46.85;22.77;;;;;;;4.88;94.56;100236.66;1806557;79;25543;-73
2024/03/13 06:07:39;;;;;;;43.42;23.02;;;;;;;4.88;94.57;100238.00;1800367;78;28013;-74
2024/03/13 06:10:10;;;;;;;40.23;22.73;;;;;;;4.88;94.61;100238.00;1799929;79;25540;-74
2024/03/13 06:12:35;;;;;;;;;;;;;;;4.86;94.60;100243.08;1801030;79;25626;-74
2024/03/13 06:15:06;;;;;;;46.77;22.27;;;;;;;4.87;94.68;100247.92;1798651;79;25917;-74
2024/03/13 06:17:29;;;;;;;46.35;22.25;;;;;;;4.86;94.73;100250.33;1759904;81;25974;-75
2024/03/13 06:19:55;;;;;;;39.33;21.87;;;;;;;4.86;94.75;100255.14;1760423;81;27308;-74
2024/03/13 06:22:23;;;;;;;48.60;23.60;;;;;;;4.85;94.77;100249.53;1760372;80;26061;-73
2024/03/13 06:24:49;;;;;;;48.73;23.55;;;;;;;4.86;94.75;100257.03;1760446;81;25884;-74
2024/03/13 06:27:15;;;;;;;50.17;22.35;;;;;;;4.88;94.77;100265.59;1739634;82;25622;-75
2024/03/13 06:29:59;;;;;;;47.17;23.85;;;;;;;4.88;94.90;100267.48;1740854;82;25642;-75
2024/03/13 06:32:29;;;;;;;46.45;23.20;;;;;;;4.88;94.90;100260.78;1740789;82;27317;-74
2024/03/13 06:35:02;;;;;;;61.33;28.25;;;;;;;4.88;94.95;100266.94;1740807;82;25650;-71
2024/03/13 06:37:31;;;;;;;61.83;28.67;;;;;;;4.89;95.22;100264.53;1800187;79;25451;-68
2024/03/13 06:39:58;;;;;;;55.90;27.25;;;;;;;4.92;95.48;100265.85;1761879;81;26305;-73
2024/03/13 06:42:25;;;;;;;47.17;24.00;;;;;;;4.95;95.61;100266.66;1761936;81;25600;-72
2024/03/13 06:44:53;;;;;;;46.83;22.52;;;;;;;4.96;95.49;100266.39;1740769;82;27360;-72
2024/03/13 06:47:20;;;;;;;50.40;23.52;;;;;;;4.97;95.48;100269.34;1740711;82;25443;-71
2024/03/13 06:49:47;;;;;;;43.10;21.90;;;;;;;4.98;95.40;100274.95;1740796;82;25433;-72
2024/03/13 06:52:14;;;;;;;46.68;22.85;;;;;;;4.98;95.32;100274.16;1740728;82;25612;-71
2024/03/13 06:54:46;;;;;;;52.27;25.62;;;;;;;4.99;95.38;100278.45;1740826;82;25423;-71
2024/03/13 06:57:12;;;;;;;48.10;24.47;;;;;;;5.00;95.41;100280.05;1740892;82;28042;-72
2024/03/13 06:59:39;;;;;;;50.98;23.87;;;;;;;4.98;95.43;100284.34;1740830;82;25518;-72
2024/03/13 07:02:11;;;;;;;48.20;24.60;;;;;;;5.00;95.46;100286.75;1740910;82;25381;-71
2024/03/13 07:04:36;;;;;;;47.05;22.87;;;;;;;5.00;95.54;100285.41;1799900;78;25581;-72
2024/03/13 07:07:04;;;;;;;43.10;22.32;;;;;;;5.02;95.68;100288.09;1810102;79;25419;-72
2024/03/13 07:09:32;;;;;;;42.17;22.52;;;;;;;5.03;95.62;100288.34;1817639;79;27318;-72
2024/03/13 07:11:58;;;;;;;42.13;23.10;;;;;;;5.04;95.70;100288.63;1817584;79;25598;-72
2024/03/13 07:14:24;;;;;;;41.65;21.48;;;;;;;5.07;95.73;100295.30;1817565;79;25442;-71
2024/03/13 07:16:51;;;;;;;41.60;22.80;;;;;;;5.08;95.72;100294.78;1817609;79;25637;-72
2024/03/13 07:19:19;;;;;;;39.03;21.52;;;;;;;5.09;95.74;100297.20;1817667;79;25434;-72
2024/03/13 07:21:46;;;;;;;39.53;22.42;;;;;;;5.10;95.82;100293.97;1773326;80;27316;-72
2024/03/13 07:24:12;;;;;;;43.50;22.87;;;;;;;5.13;95.91;100304.95;1817012;79;25578;-72
2024/03/13 07:26:41;;;;;;;41.08;22.87;;;;;;;5.12;95.92;100302.00;1817659;78;25384;-71
2024/03/13 07:29:09;;;;;;;44.98;25.25;;;;;;;5.14;95.95;100300.39;1772593;79;26315;-71
2024/03/13 07:31:39;;;;;;;41.30;24.47;;;;;;;5.17;95.92;100306.55;1817535;78;25543;-72
2024/03/13 07:34:05;;;;;;;45.67;26.23;;;;;;;5.18;95.86;100309.51;1773097;80;27501;-72
2024/03/13 07:36:32;;;;;;;39.80;23.55;;;;;;;5.21;95.90;100308.42;1817395;79;25602;-73
2024/03/13 07:38:59;;;;;;;37.78;23.20;;;;;;;5.23;95.89;100315.66;1817630;79;25573;-73
2024/03/13 07:41:26;;;;;;;42.90;23.18;;;;;;;5.25;95.91;100316.73;1817635;79;26121;-73
2024/03/13 07:43:52;;;;;;;46.70;26.17;;;;;;;5.25;95.81;100308.68;1817683;79;25622;-73
2024/03/13 07:46:18;;;;;;;42.67;25.02;;;;;;;5.26;95.98;100307.61;1817658;78;27292;-73
2024/03/13 07:48:44;;;;;;;43.38;24.00;;;;;;;5.28;95.81;100315.36;1817543;78;25852;-73
2024/03/13 07:51:11;;;;;;;44.38;25.37;;;;;;;5.28;95.99;100309.48;1817673;79;25619;-73
2024/03/13 07:53:38;;;;;;;45.33;25.40;;;;;;;5.29;95.89;100312.95;1817603;78;25602;-72
2024/03/13 07:56:06;;;;;;;41.08;23.40;;;;;;;5.31;96.10;100316.16;1817671;78;25434;-72
2024/03/13 07:58:33;;;;;;;39.73;22.52;;;;;;;5.33;96.02;100312.66;1817625;78;27301;-72
2024/03/13 08:01:01;;;;;;;36.63;21.62;;;;;;;5.34;95.94;100312.94;1817556;78;25833;-72
2024/03/13 08:03:28;;;;;;;35.35;20.25;;;;;;;5.35;96.10;100315.35;1773350;80;25373;-72
2024/03/13 08:05:56;;;;;;;33.65;21.45;;;;;;;5.37;96.08;100323.12;1817782;78;25615;-72
2024/03/13 08:08:22;;;;;;;38.73;21.25;;;;;;;5.38;96.27;100316.16;1806683;78;25370;-72
2024/03/13 08:10:49;;;;;;;39.18;23.22;;;;;;;5.41;96.26;100327.69;1806543;79;27323;-73
2024/03/13 08:13:18;;;;;;;41.95;22.50;;;;;;;5.44;96.39;100326.31;1762776;80;25616;-72
2024/03/13 08:15:44;;;;;;;38.15;21.23;;;;;;;5.46;96.23;100329.52;1806480;79;25510;-72
2024/03/13 08:18:14;;;;;;;34.98;20.90;;;;;;;5.47;96.06;100332.48;1806473;78;25596;-73
2024/03/13 08:20:39;;;;;;;37.88;20.62;;;;;;;5.49;96.13;100331.67;1762106;81;25430;-72
2024/03/13 08:23:08;;;;;;;33.10;18.92;;;;;;;5.50;96.04;100333.28;1806442;79;27281;-72
2024/03/13 08:25:36;;;;;;;33.05;20.50;;;;;;;5.53;96.14;100331.38;1806513;79;25554;-72
2024/03/13 08:28:03;;;;;;;35.75;20.57;;;;;;;5.55;96.15;100331.92;1806496;78;25492;-72
2024/03/13 08:30:31;;;;;;;33.60;21.20;;;;;;;5.57;96.16;100332.99;1806431;79;25621;-72
2024/03/13 08:32:59;;;;;;;34.50;19.92;;;;;;;5.58;96.09;100338.09;1806466;79;25370;-72
2024/03/13 08:35:28;;;;;;;36.30;19.90;;;;;;;5.60;95.95;100338.61;1762889;81;27367;-72
2024/03/13 08:37:53;;;;;;;33.23;20.40;;;;;;;5.63;95.86;100338.59;1805966;79;25562;-72
2024/03/13 08:40:20;;;;;;;31.90;19.45;;;;;;;5.63;95.91;100341.81;1806514;79;25534;-72
2024/03/13 08:42:48;;;;;;;33.28;19.82;;;;;;;5.65;95.89;100337.77;1762751;81;25586;-68
2024/03/13 08:45:14;;;;;;;33.53;19.85;;;;;;;5.69;96.17;100346.89;1806630;79;25486;-69
2024/03/13 08:47:40;;;;;;;33.35;20.52;;;;;;;5.73;96.16;100345.80;1806637;79;27478;-71
2024/03/13 08:50:07;;;;;;;30.15;19.42;;;;;;;5.75;96.04;100347.12;1806542;78;25170;-65
2024/03/13 08:52:34;;;;;;;38.28;21.97;;;;;;;5.76;95.77;100339.34;1806601;79;25608;-64
2024/03/13 08:55:04;;;;;;;33.70;20.92;;;;;;;5.76;95.37;100346.05;1762751;81;25545;-64
2024/03/13 08:57:33;;;;;;;36.83;21.90;;;;;;;5.75;94.87;100348.45;1806820;79;25571;-64
2024/03/13 08:59:59;;;;;;;39.45;21.33;;;;;;;5.71;94.70;100355.47;1806543;79;27166;-69
2024/03/13 09:02:27;;;;;;;40.50;22.40;;;;;;;5.69;94.62;100356.84;1806550;79;25416;-68
2024/03/13 09:04:55;;;;;;;39.85;23.18;;;;;;;5.68;94.50;100360.03;1762674;81;25584;-62
2024/03/13 09:07:22;;;;;;;40.73;22.77;;;;;;;5.66;94.42;100354.14;1762340;81;26163;-62
2024/03/13 09:09:50;;;;;;;;;;;;;;;5.63;94.23;100361.95;1743516;82;25599;-63
2024/03/13 09:12:19;;;;;;;45.43;24.55;;;;;;;5.61;94.14;100367.03;1740901;82;25888;-63
2024/03/13 09:14:47;;;;;;;52.55;25.80;;;;;;;5.57;94.36;100365.98;1800018;79;25600;-64
2024/03/13 09:17:15;;;;;;;43.85;23.42;;;;;;;5.54;94.65;100362.50;1762121;81;25435;-63
2024/03/13 09:19:49;;;;;;;43.85;23.20;;;;;;;5.52;94.95;100361.98;1741091;82;25675;-75
2024/03/13 09:22:17;;;;;;;47.00;26.45;;;;;;;5.56;95.16;100364.91;1761474;81;25603;-73
2024/03/13 09:24:44;;;;;;;72.03;38.75;;;;;;;5.60;95.38;100364.11;1740373;81;27302;-73
2024/03/13 09:27:10;;;;;;;40.83;21.70;;;;;;;5.58;94.77;100363.58;1741206;82;25547;-77
2024/03/13 09:29:39;;;;;;;42.13;22.27;;;;;;;5.57;94.83;100361.97;1800409;79;25650;-77
2024/03/13 09:32:07;;;;;;;42.50;23.55;;;;;;;5.60;95.14;100358.73;1800334;79;25573;-78
2024/03/13 09:34:37;;;;;;;50.30;25.30;;;;;;;5.63;95.11;100365.97;1800303;79;25614;-78
2024/03/13 09:37:07;;;;;;;43.92;24.27;;;;;;;5.67;95.74;100361.65;1800398;79;27315;-78
2024/03/13 09:39:38;;;;;;;43.73;23.70;;;;;;;5.73;96.07;100364.59;1762345;81;25653;-77
2024/03/13 09:42:10;;;;;;;44.23;23.20;;;;;;;5.76;95.94;100365.39;1741118;82;25557;-78
2024/03/13 09:44:39;;;;;;;40.40;22.90;;;;;;;5.78;95.93;100370.73;1739649;81;26261;-77
2024/03/13 09:47:06;;;;;;;44.63;23.02;;;;;;;5.81;95.71;100370.73;1741174;82;25595;-78
2024/03/13 09:49:36;;;;;;;42.13;23.90;;;;;;;5.85;95.82;100373.67;1740781;82;27311;-78
2024/03/13 09:52:07;;;;;;;39.65;22.27;;;;;;;5.89;95.94;100376.88;1740801;82;26042;-77
2024/03/13 09:54:39;;;;;;;44.80;23.95;;;;;;;5.93;96.03;100377.13;1762190;81;25556;-77
2024/03/13 09:57:08;;;;;;;48.40;26.52;;;;;;;5.96;95.69;100381.98;1740983;82;25806;-79
2024/03/13 09:59:36;;;;;;;49.48;26.02;;;;;;;5.97;95.51;100383.02;1739811;82;25906;-78
2024/03/13 10:02:07;;;;;;;47.25;25.37;;;;;;;5.96;95.00;100381.98;1740139;82;27274;-79
2024/03/13 10:04:35;;;;;;;46.65;26.12;;;;;;;5.95;95.00;100389.73;1740290;82;25317;-78
2024/03/13 10:07:07;;;;;;;46.77;26.30;;;;;;;5.95;94.98;100388.39;1763924;79;25214;-77
2024/03/13 10:09:37;;;;;;;46.53;25.88;;;;;;;5.94;94.85;100388.94;1788357;79;25625;-77
2024/03/13 10:12:07;;;;;;;46.15;25.37;;;;;;;5.92;94.87;100392.96;1818111;79;25427;-78
2024/03/13 10:14:36;;;;;;;44.80;25.85;;;;;;;5.94;95.04;100399.68;1816990;78;27328;-77
2024/03/13 10:17:09;;;;;;;50.92;26.05;;;;;;;5.93;94.93;100398.61;1773698;80;25595;-78
2024/03/13 10:19:41;;;;;;;44.23;25.10;;;;;;;5.91;94.80;100397.54;1816943;78;25602;-77
2024/03/13 10:22:08;;;;;;;52.80;24.98;;;;;;;5.91;94.72;100399.43;1816479;79;25645;-77
2024/03/13 10:24:41;;;;;;;46.00;25.12;;;;;;;5.91;94.83;100398.88;1818003;78;25593;-77
2024/03/13 10:27:10;;;;;;;49.25;25.45;;;;;;;5.92;94.52;100413.89;1773424;80;27693;-76
2024/03/13 10:29:37;;;;;;;46.33;26.37;;;;;;;5.92;94.77;100407.73;1816229;79;25581;-71
2024/03/13 10:32:07;;;;;;;44.18;23.95;;;;;;;5.93;94.88;100405.32;1817615;79;25609;-70
2024/03/13 10:34:35;;;;;;;45.70;24.82;;;;;;;5.96;94.99;100404.26;1817655;78;25369;-70
2024/03/13 10:37:05;;;;;;;202.05;113.42;;;;;;;5.97;95.06;100403.16;1773236;79;25615;-70
2024/03/13 10:39:36;;;;;;;191.92;128.32;;;;;;;6.02;95.25;100404.23;1817404;79;27336;-68
2024/03/13 10:42:07;;;;;;;82.90;50.67;;;;;;;6.06;95.45;100406.63;1817605;79;25379;-68
2024/03/13 10:44:35;;;;;;;47.03;26.45;;;;;;;6.09;95.54;100405.53;1773528;80;25431;-70
2024/03/13 10:47:03;;;;;;;44.33;25.52;;;;;;;6.16;95.61;100410.60;1816350;79;26174;-70
2024/03/13 10:49:30;;;;;;;46.75;25.40;;;;;;;6.20;94.78;100405.48;1817669;79;25189;-66
2024/03/13 10:52:03;;;;;;;46.13;25.20;;;;;;;6.19;94.22;100413.29;1773335;80;27185;-69
2024/03/13 10:54:28;;;;;;;41.75;23.90;;;;;;;6.21;94.33;100409.78;1817259;79;25772;-68
2024/03/13 10:56:55;;;;;;;45.08;23.83;;;;;;;6.23;94.15;100407.62;1817763;79;25555;-69
2024/03/13 10:59:24;;;;;;;44.63;23.57;;;;;;;6.24;94.05;100406.00;1772905;79;25590;-69
2024/03/13 11:01:52;;;;;;;43.80;23.40;;;;;;;6.24;93.84;100401.17;1817466;79;25575;-69
2024/03/13 11:04:18;;;;;;;43.75;23.70;;;;;;;6.22;93.44;100405.48;1772780;80;27850;-69
2024/03/13 11:06:45;;;;;;;42.67;23.55;;;;;;;6.20;93.26;100414.36;1817031;79;25578;-69
2024/03/13 11:09:23;;;;;;;42.65;22.30;;;;;;;6.16;93.29;100407.39;1801846;77;25369;-69
2024/03/13 11:11:56;;;;;;;40.03;22.95;;;;;;;6.15;92.96;100407.67;1800040;79;25665;-70
2024/03/13 11:14:28;;;;;;;38.60;23.00;;;;;;;6.14;93.30;100402.81;1799968;79;25386;-70
2024/03/13 11:16:58;;;;;;;39.35;21.68;;;;;;;6.16;93.51;100403.37;1800071;79;27982;-69
2024/03/13 11:19:32;;;;;;;38.45;21.60;;;;;;;6.19;93.64;100402.55;1761610;81;25412;-69
2024/03/13 11:22:03;;;;;;;34.65;21.42;;;;;;;6.19;93.47;100395.83;1761984;81;25398;-69
2024/03/13 11:24:33;;;;;;;39.03;21.27;;;;;;;6.20;93.85;100398.24;1761998;81;25626;-69
2024/03/13 11:27:05;;;;;;;41.85;22.25;;;;;;;6.21;93.70;100395.80;1740972;82;25366;-70
2024/03/13 11:29:36;;;;;;;43.17;24.92;;;;;;;6.23;93.60;100394.19;1740326;81;27264;-70
2024/03/13 11:32:08;;;;;;;40.00;23.45;;;;;;;6.22;93.55;100386.67;1740410;82;25631;-70
2024/03/13 11:34:38;;;;;;;39.83;22.67;;;;;;;6.24;93.00;100396.59;1740956;82;25543;-70
2024/03/13 11:37:07;;;;;;;38.45;21.97;;;;;;;6.23;92.85;100396.35;1740826;82;25717;-70
2024/03/13 11:39:33;;;;;;;37.50;20.72;;;;;;;6.26;93.06;100399.01;1761969;81;25523;-70